createdAt,value
2018-04-15T00:00:51.600Z,94.37
2018-04-15T00:03:54.970Z,94.43
2018-04-15T00:06:59.142Z,94.58
2018-04-15T00:10:02.497Z,94.68
2018-04-15T00:13:06.748Z,94.87
2018-04-15T00:16:10.120Z,95.00
2018-04-15T00:19:14.253Z,95.15
2018-04-15T00:22:17.660Z,95.23
2018-04-15T00:25:21.049Z,95.30
2018-04-15T00:28:24.403Z,95.35
2018-04-15T00:31:27.847Z,95.16
2018-04-15T00:34:31.210Z,94.91
2018-04-15T00:37:34.577Z,94.88
2018-04-15T00:40:37.944Z,94.85
2018-04-15T00:43:41.353Z,94.92
2018-04-15T00:46:44.705Z,94.89
2018-04-15T00:49:48.069Z,94.88
2018-04-15T00:52:51.618Z,94.91
2018-04-15T00:55:55.736Z,94.85
2018-04-15T00:58:59.862Z,94.72
2018-04-15T01:02:03.985Z,94.64
2018-04-15T01:05:08.125Z,94.66
2018-04-15T01:08:11.482Z,94.55
2018-04-15T01:11:15.584Z,94.47
2018-04-15T01:14:18.937Z,94.13
2018-04-15T01:17:22.308Z,94.01
2018-04-15T01:20:26.428Z,93.92
2018-04-15T01:23:30.556Z,93.81
2018-04-15T01:26:33.908Z,93.63
2018-04-15T01:29:37.306Z,93.71
2018-04-15T01:32:40.670Z,93.75
2018-04-15T01:35:44.010Z,93.87
2018-04-15T01:38:48.127Z,93.93
2018-04-15T01:41:53.009Z,93.97
2018-04-15T01:44:56.385Z,93.99
2018-04-15T01:48:00.503Z,93.85
2018-04-15T01:51:04.627Z,93.96
2018-04-15T01:54:08.808Z,93.93
2018-04-15T01:57:12.173Z,93.81
2018-04-15T02:00:15.532Z,93.73
2018-04-15T02:03:19.659Z,93.66
2018-04-15T02:06:23.791Z,93.52
2018-04-15T02:09:27.158Z,93.68
2018-04-15T02:12:30.525Z,93.81
2018-04-15T02:15:33.888Z,93.87
2018-04-15T02:18:37.250Z,94.02
2018-04-15T02:21:41.435Z,94.14
2018-04-15T02:24:44.798Z,94.10
2018-04-15T02:27:48.942Z,94.17
2018-04-15T02:30:52.309Z,94.16
2018-04-15T02:33:56.441Z,93.96
2018-04-15T02:36:59.857Z,93.98
2018-04-15T02:40:03.208Z,93.99
2018-04-15T02:43:06.566Z,94.01
2018-04-15T02:46:09.928Z,93.89
2018-04-15T02:49:13.298Z,93.74
2018-04-15T02:52:16.640Z,93.59
2018-04-15T02:55:19.988Z,93.60
2018-04-15T02:58:23.389Z,93.52
2018-04-15T03:01:26.750Z,93.49
2018-04-15T03:04:30.114Z,93.42
2018-04-15T03:07:34.249Z,93.35
2018-04-15T03:10:37.600Z,93.24
2018-04-15T03:13:40.956Z,93.09
2018-04-15T03:16:44.321Z,93.10
2018-04-15T03:19:48.441Z,93.21
2018-04-15T03:22:52.561Z,93.29
2018-04-15T03:25:56.688Z,93.37
2018-04-15T03:29:00.057Z,93.42
2018-04-15T03:32:03.417Z,93.40
2018-04-15T03:35:06.812Z,93.40
2018-04-15T03:38:10.173Z,93.50
2018-04-15T03:41:14.297Z,93.40
2018-04-15T03:44:18.425Z,93.23
2018-04-15T03:47:21.786Z,93.14
2018-04-15T03:50:26.680Z,93.07
2018-04-15T03:53:30.155Z,93.02
2018-04-15T03:56:33.516Z,92.95
2018-04-15T03:59:36.869Z,92.76
2018-04-15T04:02:40.223Z,92.63
2018-04-15T04:05:43.613Z,92.45
2018-04-15T04:08:46.967Z,92.16
2018-04-15T04:11:50.323Z,91.93
2018-04-15T04:14:53.686Z,91.91
2018-04-15T04:18:14.855Z,91.88
2018-04-15T04:21:36.740Z,91.86
2018-04-15T04:24:57.936Z,91.79
2018-04-15T04:28:01.384Z,91.79
2018-04-15T04:31:04.762Z,91.81
2018-04-15T04:34:08.122Z,91.82
2018-04-15T04:37:11.484Z,91.87
2018-04-15T04:40:14.848Z,91.78
2018-04-15T04:43:18.283Z,91.66
2018-04-15T04:46:21.641Z,91.55
2018-04-15T04:49:25.005Z,91.55
2018-04-15T04:52:29.133Z,91.38
2018-04-15T04:55:32.502Z,91.45
2018-04-15T04:58:35.848Z,91.33
2018-04-15T05:01:39.213Z,91.36
2018-04-15T05:04:43.360Z,91.23
2018-04-15T05:07:46.784Z,91.22
2018-04-15T05:10:50.167Z,90.93
2018-04-15T05:13:53.725Z,90.58
2018-04-15T05:16:57.843Z,90.61
2018-04-15T05:20:01.973Z,90.61
2018-04-15T05:23:06.104Z,90.26
2018-04-15T05:26:09.456Z,90.12
2018-04-15T05:29:12.837Z,89.96
2018-04-15T05:32:16.228Z,89.71
2018-04-15T05:35:19.593Z,89.38
2018-04-15T05:38:22.973Z,89.27
2018-04-15T05:41:27.120Z,89.20
2018-04-15T05:44:30.471Z,89.17
2018-04-15T05:47:33.840Z,88.62
2018-04-15T05:50:37.209Z,88.66
2018-04-15T05:53:40.581Z,88.37
2018-04-15T05:56:43.973Z,88.07
2018-04-15T05:59:47.359Z,87.52
2018-04-15T06:02:51.694Z,87.51
2018-04-15T06:05:55.077Z,87.43
2018-04-15T06:08:58.431Z,87.17
2018-04-15T06:12:01.788Z,86.87
2018-04-15T06:15:05.143Z,86.68
2018-04-15T06:18:08.496Z,86.51
2018-04-15T06:21:11.866Z,85.99
2018-04-15T06:24:15.227Z,85.72
2018-04-15T06:27:18.601Z,85.25
2018-04-15T06:30:22.741Z,85.33
2018-04-15T06:33:26.094Z,84.51
2018-04-15T06:36:29.452Z,84.92
2018-04-15T06:39:32.811Z,85.28
2018-04-15T06:42:36.944Z,85.37
2018-04-15T06:45:41.080Z,85.11
2018-04-15T06:48:44.435Z,84.43
2018-04-15T06:51:47.879Z,83.62
2018-04-15T06:54:51.266Z,83.15
2018-04-15T06:57:54.667Z,83.26
2018-04-15T07:00:58.038Z,83.33
2018-04-15T07:04:01.389Z,82.87
2018-04-15T07:07:04.869Z,82.45
2018-04-15T07:10:08.265Z,82.30
2018-04-15T07:13:11.632Z,82.18
2018-04-15T07:16:14.996Z,81.84
2018-04-15T07:19:18.496Z,81.49
2018-04-15T07:22:21.883Z,80.98
2018-04-15T07:25:25.256Z,81.30
2018-04-15T07:28:29.385Z,81.66
2018-04-15T07:31:32.748Z,81.28
2018-04-15T07:34:36.124Z,80.51
2018-04-15T07:37:39.498Z,79.95
2018-04-15T07:40:42.875Z,80.47
2018-04-15T07:43:47.013Z,80.07
2018-04-15T07:46:50.399Z,79.54
2018-04-15T07:49:53.778Z,78.54
2018-04-15T07:52:57.913Z,77.94
2018-04-15T07:56:01.314Z,78.17
2018-04-15T07:59:04.714Z,77.99
2018-04-15T08:02:08.093Z,78.39
2018-04-15T08:05:12.225Z,78.45
2018-04-15T08:08:16.354Z,78.38
2018-04-15T08:11:19.737Z,77.78
2018-04-15T08:14:23.862Z,77.69
2018-04-15T08:17:27.224Z,78.28
2018-04-15T08:20:30.610Z,77.70
2018-04-15T08:23:33.990Z,77.70
2018-04-15T08:26:38.217Z,77.50
2018-04-15T08:29:41.597Z,77.68
2018-04-15T08:32:45.000Z,77.91
2018-04-15T08:35:48.384Z,77.71
2018-04-15T08:38:51.749Z,77.30
2018-04-15T08:41:55.141Z,77.80
2018-04-15T08:44:58.504Z,77.58
2018-04-15T08:48:01.914Z,77.68
2018-04-15T08:51:05.262Z,76.63
2018-04-15T08:54:09.451Z,75.90
2018-04-15T08:57:13.592Z,74.49
2018-04-15T09:00:16.967Z,74.28
2018-04-15T09:03:20.320Z,73.77
2018-04-15T09:06:23.697Z,72.83
2018-04-15T09:09:27.857Z,72.84
2018-04-15T09:12:31.221Z,72.54
2018-04-15T09:15:35.359Z,71.23
2018-04-15T09:18:38.846Z,71.04
2018-04-15T09:21:42.205Z,70.57
2018-04-15T09:24:45.570Z,70.37
2018-04-15T09:27:48.946Z,69.80
2018-04-15T09:30:57.738Z,68.76
2018-04-15T09:34:01.107Z,67.57
2018-04-15T09:37:04.708Z,66.88
2018-04-15T09:40:08.094Z,67.51
2018-04-15T09:43:11.464Z,67.40
2018-04-15T09:46:15.645Z,67.51
2018-04-15T09:49:19.017Z,67.88
2018-04-15T09:52:22.412Z,67.79
2018-04-15T09:55:25.820Z,67.13
2018-04-15T09:58:29.327Z,66.17
2018-04-15T10:01:32.750Z,66.28
2018-04-15T10:04:36.126Z,66.20
2018-04-15T10:07:39.492Z,65.96
2018-04-15T10:10:42.871Z,65.51
2018-04-15T10:13:47.030Z,66.29
2018-04-15T10:16:50.474Z,65.51
2018-04-15T10:19:53.827Z,65.09
2018-04-15T10:22:57.220Z,65.59
2018-04-15T10:26:00.574Z,65.15
2018-04-15T10:29:03.967Z,65.21
2018-04-15T10:32:07.343Z,64.55
2018-04-15T10:35:10.712Z,65.07
2018-04-15T10:38:14.100Z,65.41
2018-04-15T10:41:18.251Z,65.02
2018-04-15T10:44:21.833Z,64.12
2018-04-15T10:47:25.257Z,63.60
2018-04-15T10:50:28.613Z,63.11
2018-04-15T10:53:32.744Z,63.52
2018-04-15T10:56:36.126Z,64.43
2018-04-15T10:59:40.252Z,64.32
2018-04-15T11:02:44.408Z,63.49
2018-04-15T11:05:47.845Z,63.38
2018-04-15T11:08:51.244Z,63.06
2018-04-15T11:11:54.663Z,63.31
2018-04-15T11:14:58.811Z,63.14
2018-04-15T11:18:02.201Z,63.11
2018-04-15T11:21:05.693Z,63.78
2018-04-15T11:24:09.853Z,64.22
2018-04-15T11:27:13.329Z,64.31
2018-04-15T11:30:16.705Z,64.93
2018-04-15T11:36:30.527Z,67.85
2018-04-15T11:39:33.887Z,67.16
2018-04-15T11:42:37.278Z,68.74
2018-04-15T11:45:40.689Z,68.93
2018-04-15T11:48:44.065Z,69.46
2018-04-15T11:51:48.226Z,70.39
2018-04-15T11:54:51.619Z,68.97
2018-04-15T11:57:55.125Z,70.16
2018-04-15T12:00:58.499Z,71.11
2018-04-15T12:04:01.896Z,70.52
2018-04-15T12:07:05.487Z,70.14
2018-04-15T12:10:09.658Z,70.48
2018-04-15T12:13:13.024Z,70.81
2018-04-15T12:16:16.424Z,71.48
2018-04-15T12:19:19.809Z,72.25
2018-04-15T12:22:23.948Z,73.69
2018-04-15T12:25:27.543Z,74.10
2018-04-15T12:28:30.916Z,74.25
2018-04-15T12:31:34.321Z,74.47
2018-04-15T12:34:38.802Z,74.71
2018-04-15T12:37:42.220Z,74.65
2018-04-15T12:40:45.903Z,72.77
2018-04-15T12:43:49.342Z,72.37
2018-04-15T12:46:52.735Z,73.56
2018-04-15T12:49:56.157Z,72.09
2018-04-15T12:53:00.311Z,73.23
2018-04-15T12:56:03.799Z,74.35
2018-04-15T12:59:07.318Z,73.43
2018-04-15T13:02:10.778Z,74.72
2018-04-15T13:05:14.948Z,73.81
2018-04-15T13:08:18.323Z,75.81
2018-04-15T13:11:21.700Z,76.25
2018-04-15T13:14:25.103Z,77.29
2018-04-15T13:17:29.441Z,77.11
2018-04-15T13:20:32.883Z,77.82
2018-04-15T13:23:36.255Z,78.31
2018-04-15T13:26:39.735Z,77.63
2018-04-15T13:29:43.106Z,78.25
2018-04-15T13:32:46.521Z,79.26
2018-04-15T13:35:50.668Z,80.13
2018-04-15T13:38:54.121Z,79.59
2018-04-15T13:41:57.511Z,79.43
2018-04-15T13:45:00.961Z,79.79
2018-04-15T13:48:04.324Z,77.57
2018-04-15T13:51:07.705Z,77.30
2018-04-15T13:54:11.077Z,78.11
2018-04-15T13:57:14.492Z,76.42
2018-04-15T14:00:17.913Z,76.54
2018-04-15T14:03:21.306Z,76.15
2018-04-15T14:06:24.687Z,75.95
2018-04-15T14:09:28.051Z,77.87
2018-04-15T14:12:31.445Z,77.68
2018-04-15T14:15:35.571Z,77.71
2018-04-15T14:18:38.936Z,77.77
2018-04-15T14:21:42.316Z,78.18
2018-04-15T14:24:45.682Z,78.66
2018-04-15T14:27:49.190Z,79.31
2018-04-15T14:30:52.606Z,76.53
2018-04-15T14:33:56.345Z,76.74
2018-04-15T14:36:59.809Z,76.49
2018-04-15T14:40:03.280Z,75.73
2018-04-15T14:43:06.665Z,75.79
2018-04-15T14:46:10.847Z,76.75
2018-04-15T14:49:14.242Z,76.74
2018-04-15T14:52:17.622Z,76.93
2018-04-15T14:55:21.128Z,77.26
2018-04-15T14:58:24.606Z,78.76
2018-04-15T15:01:28.017Z,79.41
2018-04-15T15:04:31.396Z,78.96
2018-04-15T15:07:35.545Z,78.79
2018-04-15T15:10:38.916Z,79.25
2018-04-15T15:13:43.112Z,78.72
2018-04-15T15:16:46.492Z,78.89
2018-04-15T15:19:51.393Z,78.77
2018-04-15T15:22:54.769Z,79.31
2018-04-15T15:25:58.143Z,79.99
2018-04-15T15:29:01.583Z,80.15
2018-04-15T15:32:05.094Z,79.64
2018-04-15T15:35:08.486Z,79.44
2018-04-15T15:38:11.872Z,80.00
2018-04-15T15:41:16.185Z,80.29
2018-04-15T15:44:20.322Z,80.73
2018-04-15T15:47:23.794Z,80.90
2018-04-15T15:50:27.150Z,81.68
2018-04-15T15:53:30.534Z,80.79
2018-04-15T15:56:33.969Z,80.46
2018-04-15T15:59:37.401Z,80.07
2018-04-15T16:02:41.645Z,80.86
2018-04-15T16:05:45.032Z,81.98
2018-04-15T16:08:49.186Z,82.17
2018-04-15T16:11:52.654Z,82.64
2018-04-15T16:14:56.066Z,82.67
2018-04-15T16:17:59.432Z,82.20
2018-04-15T16:21:03.622Z,83.29
2018-04-15T16:24:07.073Z,83.35
2018-04-15T16:27:10.544Z,83.63
2018-04-15T16:30:13.927Z,84.16
2018-04-15T16:33:17.347Z,84.66
2018-04-15T16:36:20.739Z,83.64
2018-04-15T16:39:24.144Z,83.48
2018-04-15T16:42:28.382Z,83.06
2018-04-15T16:45:32.589Z,83.12
2018-04-15T16:48:35.963Z,83.19
2018-04-15T16:51:39.381Z,82.81
2018-04-15T16:54:42.749Z,83.26
2018-04-15T16:57:46.133Z,83.87
2018-04-15T17:00:49.523Z,84.09
2018-04-15T17:03:52.933Z,84.44
2018-04-15T17:06:56.309Z,84.66
2018-04-15T17:09:59.675Z,84.61
2018-04-15T17:13:03.109Z,84.92
2018-04-15T17:16:06.501Z,85.30
2018-04-15T17:19:10.628Z,85.48
2018-04-15T17:22:14.035Z,85.63
2018-04-15T17:25:17.458Z,85.96
2018-04-15T17:28:20.796Z,85.84
2018-04-15T17:31:24.168Z,85.73
2018-04-15T17:34:27.588Z,85.86
2018-04-15T17:37:30.960Z,85.86
2018-04-15T17:40:34.321Z,85.90
2018-04-15T17:43:37.730Z,86.00
2018-04-15T17:46:41.098Z,85.96
2018-04-15T17:49:45.263Z,85.85
2018-04-15T17:52:48.639Z,85.94
2018-04-15T17:55:52.021Z,85.77
2018-04-15T17:58:56.187Z,85.63
2018-04-15T18:01:59.515Z,85.91
2018-04-15T18:05:04.405Z,86.31
2018-04-15T18:08:07.802Z,86.09
2018-04-15T18:11:11.177Z,85.79
2018-04-15T18:14:15.310Z,85.85
2018-04-15T18:17:18.731Z,86.06
2018-04-15T18:20:22.080Z,86.47
2018-04-15T18:23:25.445Z,86.88
2018-04-15T18:26:28.832Z,86.99
2018-04-15T18:29:32.217Z,87.18
2018-04-15T18:32:35.630Z,87.12
2018-04-15T18:35:39.012Z,86.83
2018-04-15T18:38:42.379Z,87.04
2018-04-15T18:41:45.815Z,87.18
2018-04-15T18:44:49.188Z,87.57
2018-04-15T18:47:53.314Z,87.62
2018-04-15T18:50:57.461Z,87.78
2018-04-15T18:54:00.847Z,88.00
2018-04-15T18:57:04.233Z,87.89
2018-04-15T19:00:08.371Z,88.15
2018-04-15T19:03:11.754Z,88.53
2018-04-15T19:06:15.143Z,89.04
2018-04-15T19:09:19.293Z,89.38
2018-04-15T19:12:22.770Z,89.43
2018-04-15T19:15:26.298Z,89.57
2018-04-15T19:18:29.708Z,89.55
2018-04-15T19:21:33.100Z,89.61
2018-04-15T19:24:36.589Z,89.75
2018-04-15T19:27:40.028Z,90.03
2018-04-15T19:30:43.385Z,90.19
2018-04-15T19:33:46.812Z,90.34
2018-04-15T19:36:50.225Z,90.37
2018-04-15T19:39:53.597Z,90.37
2018-04-15T19:42:56.978Z,90.00
2018-04-15T19:46:00.360Z,90.00
2018-04-15T19:49:04.581Z,90.18
2018-04-15T19:52:08.741Z,90.23
2018-04-15T19:55:12.304Z,90.11
2018-04-15T19:58:16.625Z,90.21
2018-04-15T20:01:20.836Z,90.22
2018-04-15T20:04:24.977Z,90.23
2018-04-15T20:07:28.492Z,90.42
2018-04-15T20:10:31.874Z,90.59
2018-04-15T20:13:35.267Z,90.68
2018-04-15T20:16:39.407Z,90.96
2018-04-15T20:19:42.909Z,91.32
2018-04-15T20:22:47.029Z,91.67
2018-04-15T20:25:50.631Z,92.10
2018-04-15T20:28:54.007Z,92.41
2018-04-15T20:31:58.447Z,92.70
2018-04-15T20:35:01.906Z,92.95
2018-04-15T20:38:05.275Z,93.17
2018-04-15T20:41:08.650Z,93.26
2018-04-15T20:44:12.053Z,93.33
2018-04-15T20:47:15.467Z,93.43
2018-04-15T20:50:18.837Z,93.32
2018-04-15T20:53:22.212Z,93.20
2018-04-15T20:56:26.350Z,93.17
2018-04-15T20:59:30.473Z,93.20
2018-04-15T21:02:33.896Z,91.45
2018-04-15T21:05:37.265Z,89.68
2018-04-15T21:08:41.409Z,90.45
2018-04-15T21:11:44.800Z,91.37
2018-04-15T21:14:48.184Z,92.02
2018-04-15T21:17:52.318Z,92.35
2018-04-15T21:20:55.814Z,92.60
2018-04-15T21:23:59.181Z,92.74
2018-04-15T21:27:03.319Z,92.63
2018-04-15T21:30:06.711Z,92.47
2018-04-15T21:33:10.855Z,92.27
2018-04-15T21:36:14.261Z,92.10
2018-04-15T21:39:17.660Z,91.99
2018-04-15T21:42:21.039Z,91.91
2018-04-15T21:45:24.407Z,91.80
2018-04-15T21:48:27.781Z,91.63
2018-04-15T21:51:31.142Z,91.50
2018-04-15T21:54:34.516Z,91.34
2018-04-15T21:57:38.658Z,91.17
2018-04-15T22:00:42.038Z,90.65
2018-04-15T22:03:46.164Z,89.96
2018-04-15T22:06:49.589Z,89.99
2018-04-15T22:09:52.971Z,89.72
2018-04-15T22:13:12.425Z,89.75
2018-04-15T22:16:16.766Z,89.89
2018-04-15T22:19:20.135Z,90.06
2018-04-15T22:22:23.489Z,90.32
2018-04-15T22:25:26.873Z,90.59
2018-04-15T22:28:30.230Z,90.71
2018-04-15T22:31:33.595Z,90.65
2018-04-15T22:34:36.969Z,90.13
2018-04-15T22:37:40.418Z,89.69
2018-04-15T22:40:45.297Z,89.61
2018-04-15T22:43:48.837Z,89.72
2018-04-15T22:46:52.305Z,89.96
2018-04-15T22:50:01.248Z,90.11
2018-04-15T22:53:04.593Z,90.04
2018-04-15T22:56:10.233Z,90.18
2018-04-15T22:59:14.044Z,90.16
2018-04-15T23:02:17.406Z,90.12
2018-04-15T23:05:20.791Z,90.24
2018-04-15T23:08:24.219Z,90.39
2018-04-15T23:11:27.593Z,90.49
2018-04-15T23:14:30.944Z,90.29
2018-04-15T23:17:34.327Z,90.23
2018-04-15T23:20:37.686Z,90.18
2018-04-15T23:23:41.928Z,90.27
2018-04-15T23:26:45.400Z,90.44
2018-04-15T23:29:49.541Z,90.44
2018-04-15T23:32:52.887Z,90.71
2018-04-15T23:35:57.744Z,90.84
2018-04-15T23:39:01.886Z,90.89
2018-04-15T23:42:05.243Z,90.91
2018-04-15T23:45:08.602Z,91.00
2018-04-15T23:48:11.973Z,91.16
2018-04-15T23:51:15.345Z,91.70
2018-04-15T23:54:18.710Z,91.99
2018-04-15T23:57:22.069Z,92.23
